Acre, Israel
Current Conditions -  °F | °C
As of 3:50 PM on Saturday 25 Oct 2014 (Local Time) from LLHA Reporting Station
Clear Clear  
Wind Chill: 82°   Ceiling: Unl
Heat Index: 82°   Visibility: 6mi
Dew Point: 57°   Wind: 8mph
Humidity: 42%   Direction: 300°WNW
Pressure: 29.94"   Gusts: NA
Location:  32.93°N, 35.08°E
Report Text: LLHA 251250Z 30007KT 260V330 CAVOK 28/14 Q1014
Loading
Personal Weather Stations






























Interactive Weather Map
Tropical Storm Tracking
New forecast layout! Learn more

10-Day Weather Forecast

Advertisements
Track Severe Weather on mobile